Time;durP1;ratioP1;P1;durP2;ratioP2;P2;SDS_P1;SDS_P2;PMS_P1;PMS_P2;Temp;Humidity;BMP_temperature;BMP_pressure;BME280_temperature;BME280_humidity;BME280_pressure;Samples;Min_cycle;Max_cycle;Signal;HPM_P1;HPM_P2
2020/12/22 09:26:02;;;;;;;36.80;24.08;;;;;;;;;;5100183;27;20329;-65
2020/12/22 09:28:28;;;;;;;32.38;24.25;;;;;;;;;;5069852;28;20028;-65
2020/12/22 09:30:54;;;;;;;29.70;23.38;;;;;;;;;;5080224;28;20034;-65
2020/12/22 09:33:20;;;;;;;32.60;23.35;;;;;;;;;;5075167;28;20093;-63
2020/12/22 09:38:28;;;;;;;14.30;11.07;;;15.50;99.90;;;;;;5057661;28;20883;-78
2020/12/22 09:40:54;;;;;;;15.35;10.25;;;;;;;;;;5057326;28;20033;-72
2020/12/22 09:43:20;;;;;;;12.73;10.55;;;17.40;96.80;;;;;;5069288;28;20079;-72
2020/12/22 09:45:46;;;;;;;12.32;10.18;;;18.90;92.80;;;;;;5057507;28;20478;-72
2020/12/22 09:50:25;;;;;;;26.30;22.77;;;19.30;77.70;;;;;;5040501;28;20428;-59
2020/12/22 09:52:51;;;;;;;25.80;23.10;;;14.90;83.50;;;;;;5041301;28;20024;-59
2020/12/22 09:55:17;;;;;;;27.88;23.90;;;13.40;90.10;;;;;;5039754;28;20025;-59
2020/12/22 09:57:42;;;;;;;29.80;24.33;;;12.10;92.50;;;;;;5038117;28;20041;-59
2020/12/22 10:00:08;;;;;;;30.90;24.17;;;11.30;94.90;;;;;;5041572;28;20040;-59
2020/12/22 10:02:33;;;;;;;31.08;25.10;;;11.00;95.70;;;;;;5032778;28;20483;-59
2020/12/22 10:04:59;;;;;;;30.20;25.70;;;10.70;97.00;;;;;;5034381;28;20029;-59
2020/12/22 10:07:25;;;;;;;31.27;25.08;;;10.90;96.60;;;;;;5040103;28;20026;-59
2020/12/22 10:09:50;;;;;;;38.47;25.25;;;10.90;96.70;;;;;;5033659;28;20120;-59
2020/12/22 10:12:16;;;;;;;33.47;22.95;;;;;;;;;;5033274;28;20034;-61
2020/12/22 10:14:42;;;;;;;33.15;23.20;;;;;;;;;;5033623;28;20068;-60
2020/12/22 10:17:08;;;;;;;26.33;22.25;;;;;;;;;;5037741;28;20063;-60
2020/12/22 10:19:34;;;;;;;30.88;23.25;;;;;;;;;;5034969;28;20044;-61
2020/12/22 10:22:00;;;;;;;29.20;24.17;;;;;;;;;;5037626;28;20034;-61
2020/12/22 10:24:26;;;;;;;27.85;22.45;;;;;;;;;;5041665;28;20025;-61
2020/12/22 10:26:52;;;;;;;32.75;23.27;;;;;;;;;;5034841;28;20438;-61
2020/12/22 10:29:18;;;;;;;29.52;21.98;;;;;;;;;;5038843;28;20037;-61
2020/12/22 10:31:44;;;;;;;29.27;23.02;;;;;;;;;;5037414;28;20537;-61
2020/12/22 10:34:10;;;;;;;32.03;24.48;;;;;;;;;;5041867;28;20025;-61
2020/12/22 10:37:59;;;;;;;29.63;23.02;;;;;;;;;;5113952;27;20977;-59
2020/12/22 10:40:25;;;;;;;28.67;22.15;;;;;;;;;;5118273;27;20027;-60
2020/12/22 10:42:51;;;;;;;31.10;22.75;;;;;;;;;;5110605;27;20035;-59
2020/12/22 10:45:17;;;;;;;33.42;25.05;;;;;;;;;;5118395;27;20692;-59
2020/12/22 10:47:43;;;;;;;33.70;23.83;;;;;;;;;;5112577;27;20031;-60
2020/12/22 10:50:09;;;;;;;27.17;22.65;;;;;;;;;;5114632;28;20015;-59
2020/12/22 10:52:35;;;;;;;35.95;24.17;;;;;;;;;;5115078;27;20031;-59
2020/12/22 10:55:01;;;;;;;31.10;23.30;;;;;;;;;;5119788;27;20093;-59
2020/12/22 10:57:27;;;;;;;33.63;24.27;;;;;;;;;;5116751;27;20042;-60
2020/12/22 10:59:53;;;;;;;29.00;21.80;;;;;;;;;;5116817;27;20035;-59
2020/12/22 11:02:21;;;;;;;29.13;22.83;;;;;;;;;;5115180;27;20031;-59
2020/12/22 11:04:47;;;;;;;35.60;24.23;;;;;;;;;;5113498;27;20027;-59
2020/12/22 11:07:22;;;;;;;30.67;23.45;;;;;;;;;;5116828;27;20031;-60
2020/12/22 11:09:48;;;;;;;30.95;22.95;;;;;;;;;;5118253;27;20500;-59
2020/12/22 11:12:14;;;;;;;27.95;22.63;;;;;;;;;;5112898;27;20107;-59
2020/12/22 11:14:40;;;;;;;29.13;23.98;;;;;;;;;;5122901;27;20111;-59
2020/12/22 11:17:06;;;;;;;33.70;23.60;;;;;;;;;;5118281;28;20563;-59
2020/12/22 11:19:33;;;;;;;33.00;23.38;;;;;;;;;;5116441;27;20065;-59
2020/12/22 11:21:59;;;;;;;29.58;22.95;;;;;;;;;;5116090;27;20039;-59
2020/12/22 11:24:25;;;;;;;29.63;22.63;;;;;;;;;;5119554;27;20070;-59
2020/12/22 11:26:51;;;;;;;29.13;23.10;;;;;;;;;;5115231;28;20385;-59
2020/12/22 11:29:17;;;;;;;26.45;20.90;;;;;;;;;;5117013;27;20020;-59
2020/12/22 11:31:46;;;;;;;28.27;21.77;;;;;;;;;;5116586;28;20039;-59
2020/12/22 11:34:12;;;;;;;27.80;21.83;;;;;;;;;;5114034;27;20153;-60
2020/12/22 11:36:38;;;;;;;33.97;24.05;;;;;;;;;;5112313;27;20459;-60
2020/12/22 11:39:05;;;;;;;30.17;23.90;;;;;;;;;;5114271;27;20022;-59
2020/12/22 11:41:31;;;;;;;25.98;21.02;;;;;;;;;;5113341;27;20405;-60
2020/12/22 11:43:56;;;;;;;28.88;22.92;;;;;;;;;;5087418;27;20029;-61
2020/12/22 11:46:22;;;;;;;25.67;20.50;;;14.90;99.90;;;;;;5054920;28;20036;-68
2020/12/22 11:48:49;;;;;;;28.52;21.75;;;15.20;88.00;;;;;;5041282;28;20124;-66
2020/12/22 11:51:15;;;;;;;24.75;20.95;;;12.40;93.10;;;;;;5042545;28;20032;-67
2020/12/22 11:53:42;;;;;;;25.58;21.17;;;11.60;95.50;;;;;;5043881;28;20037;-66
2020/12/22 11:56:08;;;;;;;26.83;21.58;;;11.30;95.50;;;;;;5044515;28;20021;-66
2020/12/22 11:58:35;;;;;;;26.05;20.67;;;11.20;95.70;;;;;;5046278;28;20134;-66
2020/12/22 12:01:00;;;;;;;31.30;22.58;;;11.00;95.90;;;;;;5038523;28;20068;-66
2020/12/22 12:03:26;;;;;;;27.13;20.90;;;11.10;95.90;;;;;;5046662;28;20064;-66
2020/12/22 12:05:52;;;;;;;27.02;22.20;;;11.10;96.10;;;;;;5041625;28;20078;-66
2020/12/22 12:08:17;;;;;;;29.05;21.92;;;11.10;96.00;;;;;;5048578;28;20075;-66
2020/12/22 12:10:43;;;;;;;26.42;20.40;;;11.20;96.20;;;;;;5037116;28;20112;-68
2020/12/22 12:13:09;;;;;;;26.73;21.90;;;11.20;95.60;;;;;;5054972;28;20052;-66
2020/12/22 12:15:34;;;;;;;24.85;20.25;;;11.80;99.90;;;;;;5040189;28;20041;-68
2020/12/22 12:18:01;;;;;;;24.02;20.83;;;12.50;94.60;;;;;;5046520;28;20102;-68
2020/12/22 12:20:26;;;;;;;25.80;20.88;;;12.40;95.60;;;;;;5041723;28;20143;-66
2020/12/22 12:22:53;;;;;;;26.67;21.40;;;12.40;94.10;;;;;;5035765;28;20043;-66
2020/12/22 12:25:18;;;;;;;25.25;20.70;;;12.40;95.90;;;;;;5041761;28;20040;-66
2020/12/22 12:27:46;;;;;;;25.95;20.55;;;12.50;96.00;;;;;;5060283;28;20033;-66
2020/12/22 12:30:12;;;;;;;22.17;19.30;;;12.70;95.80;;;;;;5062232;28;20132;-66
2020/12/22 12:32:37;;;;;;;20.73;18.52;;;12.70;95.20;;;;;;5046845;28;20111;-67
2020/12/22 12:35:03;;;;;;;23.60;20.20;;;12.60;94.60;;;;;;5061105;28;20033;-66
2020/12/22 12:37:29;;;;;;;22.80;18.85;;;12.40;93.50;;;;;;5047113;28;20061;-66
2020/12/22 12:39:56;;;;;;;27.15;19.38;;;12.60;95.70;;;;;;5040582;28;20115;-66
2020/12/22 12:42:25;;;;;;;25.83;20.10;;;12.50;95.40;;;;;;5046471;28;20032;-67
2020/12/22 12:44:52;;;;;;;24.90;19.67;;;12.60;95.90;;;;;;5058386;28;20153;-66
2020/12/22 12:47:18;;;;;;;21.80;18.25;;;12.70;95.40;;;;;;5044215;28;20037;-66
2020/12/22 12:49:43;;;;;;;24.40;19.60;;;12.70;94.50;;;;;;5042784;28;20602;-66
2020/12/22 12:52:11;;;;;;;25.73;19.40;;;12.90;95.60;;;;;;5046540;28;20417;-66
2020/12/22 12:54:37;;;;;;;21.02;18.48;;;12.70;94.50;;;;;;5043844;28;20029;-66
2020/12/22 12:57:02;;;;;;;21.23;17.42;;;12.70;94.90;;;;;;5043841;28;20047;-66
2020/12/22 12:59:28;;;;;;;23.30;18.92;;;12.80;95.70;;;;;;5041560;28;20025;-67
2020/12/22 13:01:54;;;;;;;22.45;17.75;;;13.00;95.10;;;;;;5044345;28;20123;-68
2020/12/22 13:04:19;;;;;;;25.27;19.10;;;13.00;93.30;;;;;;5041460;28;20096;-68
2020/12/22 13:06:45;;;;;;;24.40;18.73;;;13.10;94.50;;;;;;5044704;28;20469;-67
2020/12/22 13:09:11;;;;;;;23.95;18.58;;;13.00;94.10;;;;;;5044045;28;20048;-68
2020/12/22 13:11:37;;;;;;;26.67;20.63;;;13.10;94.30;;;;;;5041994;28;20471;-67
2020/12/22 13:14:03;;;;;;;56.38;44.13;;;13.10;94.30;;;;;;5045347;28;20033;-67
2020/12/22 13:16:28;;;;;;;31.27;25.67;;;13.10;94.60;;;;;;5037790;28;20041;-68
2020/12/22 13:18:54;;;;;;;24.13;18.45;;;13.20;94.60;;;;;;5045269;28;20021;-68
2020/12/22 13:21:19;;;;;;;20.90;17.80;;;13.10;93.50;;;;;;5043513;28;20029;-68
2020/12/22 13:23:45;;;;;;;20.27;18.15;;;13.10;94.20;;;;;;5046050;28;20043;-68
2020/12/22 13:26:11;;;;;;;22.02;17.55;;;13.20;94.20;;;;;;5041889;28;20594;-68
2020/12/22 13:28:37;;;;;;;27.45;21.38;;;13.10;94.60;;;;;;5045783;28;20110;-68
2020/12/22 13:31:03;;;;;;;27.52;21.42;;;13.10;94.70;;;;;;5054657;28;20123;-67
2020/12/22 13:33:28;;;;;;;26.67;22.02;;;13.10;95.20;;;;;;5046609;28;20458;-67
2020/12/22 13:35:54;;;;;;;24.85;21.30;;;12.80;94.30;;;;;;5042607;28;20095;-68
2020/12/22 13:38:20;;;;;;;28.42;20.40;;;12.80;95.80;;;;;;5037265;28;20584;-67
2020/12/22 13:40:46;;;;;;;26.27;20.35;;;12.80;93.80;;;;;;5038503;28;20553;-67
2020/12/22 13:43:12;;;;;;;29.45;21.88;;;12.80;94.80;;;;;;5045354;28;20021;-68
2020/12/22 13:45:37;;;;;;;31.30;21.90;;;12.70;95.90;;;;;;5045314;28;20017;-67
2020/12/22 13:48:03;;;;;;;25.50;20.27;;;12.80;96.00;;;;;;5044737;28;20029;-68
2020/12/22 13:50:29;;;;;;;26.05;20.25;;;12.70;94.60;;;;;;5039516;28;20032;-67
2020/12/22 13:52:54;;;;;;;27.83;20.55;;;12.60;95.80;;;;;;5047578;28;20033;-67
2020/12/22 13:55:20;;;;;;;23.83;19.25;;;12.70;95.40;;;;;;5040697;28;20025;-67
2020/12/22 13:57:48;;;;;;;24.52;18.95;;;12.80;95.80;;;;;;5060531;28;20150;-67
2020/12/22 14:00:14;;;;;;;23.48;18.55;;;12.90;96.20;;;;;;5044007;28;20029;-67
2020/12/22 14:02:39;;;;;;;22.92;18.45;;;12.90;95.60;;;;;;5043454;28;20052;-68
2020/12/22 14:05:05;;;;;;;21.35;17.48;;;12.70;95.30;;;;;;5056621;28;20040;-67
2020/12/22 14:07:31;;;;;;;22.63;17.95;;;12.70;94.70;;;;;;5045048;28;20619;-67
2020/12/22 14:09:57;;;;;;;24.38;17.85;;;12.70;95.10;;;;;;5040698;28;20048;-67
2020/12/22 14:12:22;;;;;;;23.15;17.52;;;12.90;95.30;;;;;;5040236;28;20025;-67
2020/12/22 14:14:48;;;;;;;24.40;19.13;;;12.90;95.40;;;;;;5043092;28;20489;-67
2020/12/22 14:17:14;;;;;;;20.58;17.40;;;13.00;95.20;;;;;;5045097;28;20487;-67
2020/12/22 14:19:40;;;;;;;19.55;17.35;;;13.00;94.70;;;;;;5043330;28;20024;-67
2020/12/22 14:22:06;;;;;;;23.65;17.15;;;13.00;95.40;;;;;;5040577;28;20090;-67
2020/12/22 14:24:31;;;;;;;26.58;18.70;;;12.90;95.40;;;;;;5044348;28;20175;-67
2020/12/22 14:26:57;;;;;;;27.08;21.83;;;13.00;94.50;;;;;;5041624;28;20025;-67
2020/12/22 14:29:22;;;;;;;35.22;24.13;;;13.00;95.40;;;;;;5044336;28;20026;-67
2020/12/22 14:31:48;;;;;;;31.80;23.88;;;12.90;96.00;;;;;;5041560;28;20150;-67
2020/12/22 14:34:14;;;;;;;34.35;25.55;;;12.90;95.80;;;;;;5040906;28;20029;-67
2020/12/22 14:36:39;;;;;;;32.70;24.23;;;12.80;96.50;;;;;;5042100;28;20053;-67
2020/12/22 14:39:05;;;;;;;34.47;24.70;;;12.80;96.30;;;;;;5045412;28;20390;-67
2020/12/22 14:41:31;;;;;;;35.53;25.70;;;12.80;96.40;;;;;;5042898;28;20427;-68
2020/12/22 14:43:56;;;;;;;32.83;25.38;;;12.60;96.90;;;;;;5042899;28;20025;-68
2020/12/22 14:46:22;;;;;;;32.55;25.85;;;12.60;96.50;;;;;;5038899;28;20024;-68
2020/12/22 14:48:48;;;;;;;35.50;26.77;;;12.60;96.70;;;;;;5043202;28;20036;-68
2020/12/22 14:51:13;;;;;;;38.58;28.15;;;12.50;96.10;;;;;;5041178;28;20021;-68
2020/12/22 14:53:39;;;;;;;42.75;28.95;;;12.40;96.70;;;;;;5043810;28;20482;-64
2020/12/22 14:56:08;;;;;;;43.45;29.58;;;12.40;96.20;;;;;;5043195;28;20037;-64
2020/12/22 14:58:36;;;;;;;41.97;29.33;;;12.40;97.00;;;;;;5042587;28;20832;-63
2020/12/22 15:01:03;;;;;;;46.95;31.75;;;12.30;97.50;;;;;;5044279;28;20052;-64
2020/12/22 15:03:29;;;;;;;45.88;32.83;;;12.30;97.20;;;;;;5039457;28;20029;-64
2020/12/22 15:05:55;;;;;;;42.85;29.70;;;12.30;97.60;;;;;;5044986;28;20368;-63
2020/12/22 15:08:20;;;;;;;46.75;31.08;;;12.20;95.80;;;;;;5040031;28;20047;-64
2020/12/22 15:10:46;;;;;;;43.45;30.98;;;12.30;97.60;;;;;;5040357;28;20392;-64
2020/12/22 15:13:12;;;;;;;45.17;31.90;;;12.30;97.50;;;;;;5039388;28;20111;-63
2020/12/22 15:15:37;;;;;;;44.85;30.88;;;12.30;97.00;;;;;;5042491;28;20484;-64
2020/12/22 15:18:03;;;;;;;42.58;30.77;;;12.30;98.00;;;;;;5037209;28;20032;-64
2020/12/22 15:20:28;;;;;;;47.58;32.78;;;12.20;98.10;;;;;;5041036;28;20134;-64
2020/12/22 15:22:55;;;;;;;45.58;31.30;;;12.30;98.00;;;;;;5039488;28;20025;-64
2020/12/22 15:25:22;;;;;;;46.00;33.45;;;12.30;97.80;;;;;;5049548;28;20021;-64
2020/12/22 15:27:48;;;;;;;53.20;33.63;;;12.20;97.40;;;;;;5042966;28;20048;-64
2020/12/22 15:30:14;;;;;;;63.72;36.80;;;12.10;98.10;;;;;;5046779;28;20037;-64
2020/12/22 15:32:39;;;;;;;58.17;37.08;;;12.00;97.80;;;;;;5042807;28;20052;-63
2020/12/22 15:35:05;;;;;;;65.65;41.63;;;11.90;98.20;;;;;;5044580;28;20042;-64
2020/12/22 15:37:30;;;;;;;66.15;39.65;;;11.90;98.40;;;;;;5049367;28;20048;-64
2020/12/22 15:39:56;;;;;;;63.28;40.00;;;12.00;96.90;;;;;;5046390;28;20031;-64
2020/12/22 15:42:22;;;;;;;64.50;41.33;;;12.00;98.40;;;;;;5049468;28;20029;-63
2020/12/22 15:44:54;;;;;;;72.32;40.35;;;12.00;98.20;;;;;;5044524;28;20033;-64
2020/12/22 15:47:23;;;;;;;72.03;43.38;;;11.90;98.00;;;;;;5047525;28;20027;-64
2020/12/22 15:49:49;;;;;;;67.65;42.47;;;12.00;98.40;;;;;;5044752;28;20549;-64
2020/12/22 15:52:14;;;;;;;70.28;43.55;;;12.00;98.50;;;;;;5048947;28;20056;-64
2020/12/22 15:54:40;;;;;;;71.18;43.50;;;12.00;98.20;;;;;;5041144;28;20028;-63
2020/12/22 15:57:05;;;;;;;78.53;47.95;;;11.90;97.80;;;;;;5046755;28;20072;-63
2020/12/22 15:59:31;;;;;;;80.63;46.70;;;11.90;97.90;;;;;;5046330;28;20052;-63
2020/12/22 16:01:57;;;;;;;78.35;46.67;;;11.90;97.90;;;;;;5048090;28;20033;-63
2020/12/22 16:04:26;;;;;;;84.32;47.65;;;11.90;98.20;;;;;;5045796;28;20534;-63
2020/12/22 16:06:52;;;;;;;80.00;47.47;;;12.00;98.30;;;;;;5047532;28;20032;-63
2020/12/22 16:09:19;;;;;;;77.30;46.20;;;12.00;98.20;;;;;;5040314;28;20033;-63
2020/12/22 16:11:45;;;;;;;81.57;45.90;;;12.00;97.60;;;;;;5045039;28;20105;-63
2020/12/22 16:14:11;;;;;;;78.45;46.28;;;12.00;97.60;;;;;;5046868;28;20100;-63
2020/12/22 16:16:37;;;;;;;87.93;48.22;;;11.80;97.60;;;;;;5043033;28;20154;-64
2020/12/22 16:19:04;;;;;;;82.22;47.78;;;11.80;98.50;;;;;;5047438;28;20504;-63
2020/12/22 16:21:29;;;;;;;85.90;49.88;;;11.80;98.30;;;;;;5043013;28;20039;-63
2020/12/22 16:23:58;;;;;;;88.40;49.58;;;11.90;98.10;;;;;;5046683;28;20017;-63
2020/12/22 16:26:24;;;;;;;76.68;46.95;;;11.90;97.30;;;;;;5039212;28;20022;-64
2020/12/22 16:28:50;;;;;;;83.93;47.75;;;11.90;98.40;;;;;;5060645;28;20029;-63
2020/12/22 16:31:15;;;;;;;79.28;48.08;;;12.00;97.80;;;;;;5037218;28;20053;-63
2020/12/22 16:33:43;;;;;;;82.88;48.33;;;11.80;98.00;;;;;;5044259;28;20115;-64
2020/12/22 16:36:10;;;;;;;75.55;46.08;;;11.90;98.50;;;;;;5043544;28;20040;-64
2020/12/22 16:38:36;;;;;;;80.07;46.78;;;11.90;98.50;;;;;;5045411;28;20448;-64
2020/12/22 16:41:03;;;;;;;75.50;46.67;;;11.80;98.40;;;;;;5041144;28;20018;-64
2020/12/22 16:43:29;;;;;;;79.88;48.40;;;11.70;98.40;;;;;;5046565;28;20053;-64
2020/12/22 16:45:55;;;;;;;79.47;47.30;;;11.70;98.20;;;;;;5040986;28;20142;-64
2020/12/22 16:48:21;;;;;;;70.65;46.22;;;11.70;97.40;;;;;;5047209;28;20482;-64
2020/12/22 16:50:46;;;;;;;72.60;46.13;;;11.80;98.30;;;;;;5044110;28;20082;-64
2020/12/22 16:53:12;;;;;;;80.78;46.78;;;11.80;98.40;;;;;;5041968;28;20032;-65
2020/12/22 16:55:39;;;;;;;72.03;46.72;;;11.80;97.60;;;;;;5043141;28;20111;-64
2020/12/22 16:58:05;;;;;;;75.65;46.25;;;11.80;97.50;;;;;;5030589;28;21026;-64
2020/12/22 17:00:33;;;;;;;75.15;47.30;;;11.80;97.80;;;;;;5044600;28;20103;-65
2020/12/22 17:02:59;;;;;;;71.30;44.88;;;11.70;98.40;;;;;;5034498;28;20225;-64
2020/12/22 17:05:24;;;;;;;70.97;45.45;;;11.80;98.60;;;;;;5043743;28;20498;-64
2020/12/22 17:07:50;;;;;;;69.30;43.63;;;11.60;98.10;;;;;;5040983;28;20526;-64
2020/12/22 17:10:16;;;;;;;68.82;43.05;;;11.70;98.40;;;;;;5045982;28;20025;-64
2020/12/22 17:12:42;;;;;;;66.80;41.78;;;11.80;98.50;;;;;;5040632;28;20029;-64
2020/12/22 17:15:08;;;;;;;68.38;42.50;;;11.70;98.10;;;;;;5043338;28;20112;-64
2020/12/22 17:17:36;;;;;;;72.60;42.45;;;11.50;98.40;;;;;;5040465;28;20505;-64
2020/12/22 17:20:03;;;;;;;74.50;43.03;;;11.40;98.80;;;;;;5044104;28;20501;-64
2020/12/22 17:22:28;;;;;;;66.97;43.78;;;11.60;98.70;;;;;;5038491;28;20728;-64
2020/12/22 17:24:56;;;;;;;67.53;41.63;;;11.70;98.60;;;;;;5043138;28;20553;-64
2020/12/22 17:27:22;;;;;;;62.22;39.53;;;11.70;98.60;;;;;;5039055;28;20116;-64
2020/12/22 17:29:48;;;;;;;69.65;43.40;;;11.80;98.60;;;;;;5045141;28;20763;-64
2020/12/22 17:32:18;;;;;;;64.10;42.33;;;11.60;98.60;;;;;;5039429;28;20071;-64
2020/12/22 17:34:45;;;;;;;63.97;42.35;;;11.60;98.40;;;;;;5038379;28;20030;-65
2020/12/22 17:37:13;;;;;;;63.42;40.55;;;11.70;98.50;;;;;;5039734;28;20503;-64
2020/12/22 17:39:39;;;;;;;63.75;40.03;;;11.80;97.90;;;;;;5039975;28;20033;-63
2020/12/22 17:42:06;;;;;;;55.38;38.08;;;11.60;98.40;;;;;;5041168;28;20044;-63
2020/12/22 17:44:32;;;;;;;57.15;38.50;;;11.60;98.10;;;;;;5042057;28;20021;-64
2020/12/22 17:46:58;;;;;;;52.75;36.67;;;11.70;98.70;;;;;;5055249;28;20039;-64
2020/12/22 17:49:23;;;;;;;49.05;34.58;;;11.70;98.60;;;;;;5040819;28;20040;-65
2020/12/22 17:51:49;;;;;;;49.72;33.75;;;11.70;98.40;;;;;;5041479;28;20484;-64
2020/12/22 17:54:15;;;;;;;53.97;35.28;;;11.70;98.60;;;;;;5034441;28;22656;-64
2020/12/22 17:56:43;;;;;;;50.13;34.25;;;11.60;97.60;;;;;;5042885;28;20059;-64
2020/12/22 17:59:09;;;;;;;53.97;34.38;;;11.70;98.40;;;;;;5037332;28;20299;-64
2020/12/22 18:01:35;;;;;;;49.88;34.10;;;11.80;98.20;;;;;;5045618;28;20060;-64
2020/12/22 18:04:00;;;;;;;46.08;32.47;;;11.70;98.40;;;;;;5040400;28;20040;-64
2020/12/22 18:06:26;;;;;;;48.05;33.90;;;11.80;98.40;;;;;;5043507;28;20079;-64
2020/12/22 18:08:52;;;;;;;54.10;34.50;;;11.80;98.00;;;;;;5042781;28;20037;-64
2020/12/22 18:11:21;;;;;;;48.30;32.67;;;11.90;98.60;;;;;;5041334;28;20115;-63
2020/12/22 18:13:47;;;;;;;46.72;32.15;;;12.00;98.20;;;;;;5033863;28;20037;-64
2020/12/22 18:16:16;;;;;;;45.42;31.95;;;11.80;98.50;;;;;;5038371;28;20032;-63
2020/12/22 18:18:42;;;;;;;47.47;32.95;;;11.90;98.00;;;;;;5038084;28;20029;-63
2020/12/22 18:21:10;;;;;;;47.08;32.83;;;11.90;98.60;;;;;;5041066;28;20029;-63
2020/12/22 18:23:36;;;;;;;43.55;30.60;;;12.00;98.00;;;;;;5042401;28;20029;-64
2020/12/22 18:26:02;;;;;;;46.55;32.60;;;11.90;98.20;;;;;;5043017;28;20036;-64
2020/12/22 18:28:28;;;;;;;46.45;33.35;;;11.90;98.20;;;;;;5041406;28;20049;-64
2020/12/22 18:30:54;;;;;;;45.55;31.38;;;11.90;98.50;;;;;;5042226;28;20033;-64
2020/12/22 18:33:20;;;;;;;44.38;32.40;;;11.90;98.70;;;;;;5042153;28;20066;-64
2020/12/22 18:35:46;;;;;;;49.97;32.03;;;12.00;98.70;;;;;;5039837;28;20032;-64
2020/12/22 18:38:12;;;;;;;49.70;31.92;;;12.00;98.70;;;;;;5042939;28;20044;-64
2020/12/22 18:40:37;;;;;;;42.95;31.75;;;12.00;98.30;;;;;;5040799;28;20031;-64
2020/12/22 18:43:04;;;;;;;42.50;30.05;;;12.10;98.60;;;;;;5045190;28;20052;-64
2020/12/22 18:45:30;;;;;;;42.58;30.38;;;12.00;98.00;;;;;;5039375;28;20040;-64
2020/12/22 18:47:55;;;;;;;37.92;28.23;;;12.00;98.60;;;;;;5041760;28;20521;-64
2020/12/22 18:50:21;;;;;;;41.80;28.92;;;12.00;98.80;;;;;;5041982;28;20029;-64
2020/12/22 18:52:47;;;;;;;39.05;29.10;;;12.10;98.30;;;;;;5038961;28;20071;-64
2020/12/22 18:55:13;;;;;;;41.13;28.42;;;12.00;97.80;;;;;;5041136;28;20021;-64
2020/12/22 18:57:41;;;;;;;35.80;26.50;;;12.10;98.60;;;;;;5038208;28;20043;-64
2020/12/22 19:00:07;;;;;;;35.15;27.40;;;12.10;98.10;;;;;;5048520;28;20029;-64
2020/12/22 19:02:33;;;;;;;36.75;26.80;;;12.10;98.50;;;;;;5043576;28;20425;-64
2020/12/22 19:04:58;;;;;;;35.47;27.73;;;12.20;98.30;;;;;;5048452;28;20033;-64
2020/12/22 19:07:24;;;;;;;38.20;27.88;;;12.10;98.00;;;;;;5039324;28;20040;-64
2020/12/22 19:09:50;;;;;;;35.90;26.38;;;12.10;98.60;;;;;;5047599;28;20033;-64
2020/12/22 19:12:16;;;;;;;37.85;28.35;;;12.20;98.60;;;;;;5059613;28;20044;-64
2020/12/22 19:14:42;;;;;;;33.30;26.77;;;12.20;98.30;;;;;;5047283;28;20029;-64
2020/12/22 19:17:08;;;;;;;36.63;27.60;;;12.20;98.00;;;;;;5041337;28;20040;-64
2020/12/22 19:19:33;;;;;;;35.03;27.23;;;12.20;98.30;;;;;;5048560;28;20025;-64
2020/12/22 19:21:59;;;;;;;38.17;27.30;;;12.00;98.60;;;;;;5043011;28;20524;-64
2020/12/22 19:24:25;;;;;;;36.75;27.15;;;12.20;98.60;;;;;;5048077;28;20025;-64
2020/12/22 19:26:54;;;;;;;35.50;27.63;;;12.20;98.30;;;;;;5043815;28;20037;-64
2020/12/22 19:29:21;;;;;;;34.65;27.08;;;12.20;97.90;;;;;;5045546;28;20029;-64
2020/12/22 19:31:54;;;;;;;36.90;28.30;;;12.20;98.40;;;;;;5048496;28;20028;-64
2020/12/22 19:34:20;;;;;;;37.17;27.80;;;12.30;98.30;;;;;;5042700;28;20029;-64
2020/12/22 19:36:50;;;;;;;37.60;28.17;;;12.20;96.90;;;;;;5049277;28;20063;-64
2020/12/22 19:39:16;;;;;;;34.90;26.58;;;12.20;97.80;;;;;;5039454;28;20071;-64
2020/12/22 19:41:48;;;;;;;39.35;26.45;;;12.10;98.30;;;;;;5046071;28;20490;-64
2020/12/22 19:44:15;;;;;;;35.05;26.50;;;12.10;97.80;;;;;;5038660;28;20025;-64
2020/12/22 19:46:41;;;;;;;35.42;26.90;;;12.20;98.70;;;;;;5044356;28;20033;-65
2020/12/22 19:49:07;;;;;;;35.97;27.90;;;12.20;98.80;;;;;;5038791;28;20099;-65
2020/12/22 19:51:33;;;;;;;38.30;29.13;;;12.20;98.20;;;;;;5043146;28;20418;-65
2020/12/22 19:53:59;;;;;;;41.92;30.35;;;12.20;98.40;;;;;;5043125;28;20036;-66
2020/12/22 19:56:25;;;;;;;35.97;27.85;;;12.20;98.10;;;;;;5045485;28;20041;-65
2020/12/22 19:58:51;;;;;;;42.25;30.00;;;12.20;97.80;;;;;;5042252;28;20025;-65
2020/12/22 20:01:18;;;;;;;38.70;30.13;;;12.10;97.60;;;;;;5045778;28;20113;-65
2020/12/22 20:03:44;;;;;;;39.22;28.38;;;12.00;97.40;;;;;;5041101;28;20091;-65
2020/12/22 20:06:20;;;;;;;36.22;28.27;;;12.00;98.20;;;;;;5044785;28;20136;-65
2020/12/22 20:08:46;;;;;;;38.72;29.48;;;12.00;97.90;;;;;;5039664;28;20040;-65
2020/12/22 20:11:12;;;;;;;37.20;29.33;;;12.10;98.60;;;;;;5049448;28;20044;-65
2020/12/22 20:13:38;;;;;;;40.33;30.40;;;12.10;98.20;;;;;;5042483;28;20021;-64
2020/12/22 20:16:09;;;;;;;44.05;29.33;;;12.10;98.10;;;;;;5046758;28;20036;-65
2020/12/22 20:18:34;;;;;;;43.72;31.52;;;12.00;97.70;;;;;;5042548;28;20025;-65
2020/12/22 20:21:00;;;;;;;40.08;31.52;;;12.10;98.50;;;;;;5037680;28;20040;-64
2020/12/22 20:23:26;;;;;;;40.33;30.27;;;12.10;98.50;;;;;;5048804;28;20425;-65
2020/12/22 20:25:51;;;;;;;42.65;30.70;;;12.10;97.70;;;;;;5039959;28;20053;-65
2020/12/22 20:28:17;;;;;;;39.03;28.92;;;12.10;97.90;;;;;;5045189;28;20051;-65
2020/12/22 20:30:42;;;;;;;38.40;29.98;;;12.20;98.30;;;;;;5042144;28;20467;-65
2020/12/22 20:33:11;;;;;;;36.60;29.35;;;12.10;98.20;;;;;;5044515;28;20082;-64
2020/12/22 20:35:37;;;;;;;37.63;28.83;;;12.10;98.10;;;;;;5048180;28;20047;-64
2020/12/22 20:38:03;;;;;;;40.10;30.00;;;12.10;98.40;;;;;;5042887;28;20470;-65
2020/12/22 20:40:29;;;;;;;38.17;29.60;;;12.20;98.30;;;;;;5041193;28;20025;-65
2020/12/22 20:42:55;;;;;;;38.00;29.17;;;12.10;98.10;;;;;;5046228;28;20114;-65
2020/12/22 20:45:23;;;;;;;36.13;28.60;;;12.10;97.70;;;;;;5039077;28;20111;-65
2020/12/22 20:47:49;;;;;;;32.20;27.35;;;12.10;98.50;;;;;;5040833;28;20071;-65
2020/12/22 20:50:15;;;;;;;36.03;28.08;;;12.20;98.20;;;;;;5043905;28;20124;-65
2020/12/22 20:52:41;;;;;;;35.22;28.63;;;12.20;97.90;;;;;;5040864;28;20029;-65
2020/12/22 20:55:06;;;;;;;38.53;28.73;;;12.00;97.90;;;;;;5046891;28;20112;-65
2020/12/22 20:57:32;;;;;;;37.92;29.08;;;12.10;98.60;;;;;;5041698;28;20045;-65
2020/12/22 20:59:58;;;;;;;39.10;28.88;;;12.20;98.60;;;;;;5046244;28;20036;-65
2020/12/22 21:02:24;;;;;;;41.40;28.35;;;12.20;97.90;;;;;;5040976;28;20198;-65
2020/12/22 21:04:49;;;;;;;35.42;28.50;;;12.20;98.50;;;;;;5045965;28;20608;-65
2020/12/22 21:07:15;;;;;;;41.40;28.77;;;12.20;98.10;;;;;;5037359;28;20063;-65
2020/12/22 21:09:41;;;;;;;37.67;27.95;;;12.20;98.70;;;;;;5042253;28;20032;-65
2020/12/22 21:12:07;;;;;;;35.13;27.25;;;12.20;98.30;;;;;;5046775;28;20040;-65
2020/12/22 21:14:32;;;;;;;35.67;27.52;;;12.30;98.30;;;;;;5043361;28;20032;-65
2020/12/22 21:17:00;;;;;;;31.58;26.08;;;12.30;98.00;;;;;;5039613;28;20041;-65
2020/12/22 21:19:25;;;;;;;36.35;26.85;;;12.20;97.10;;;;;;5040490;28;20075;-65
2020/12/22 21:21:51;;;;;;;37.40;27.83;;;12.20;98.10;;;;;;5039537;28;20024;-65
2020/12/22 21:24:17;;;;;;;33.38;26.35;;;12.30;98.10;;;;;;5043798;28;20039;-65
2020/12/22 21:26:42;;;;;;;33.95;26.77;;;12.30;98.10;;;;;;5038998;28;20025;-65
2020/12/22 21:29:11;;;;;;;35.13;25.83;;;12.30;98.50;;;;;;5042638;28;20052;-65
2020/12/22 21:31:37;;;;;;;34.95;27.38;;;12.30;98.10;;;;;;5044984;28;20502;-65
2020/12/22 21:34:03;;;;;;;37.67;27.85;;;12.40;98.10;;;;;;5040461;28;20023;-65
2020/12/22 21:36:29;;;;;;;34.85;26.95;;;12.30;98.20;;;;;;5043278;28;20056;-65
2020/12/22 21:38:55;;;;;;;37.22;26.35;;;12.40;98.20;;;;;;5037480;28;20104;-65
2020/12/22 21:41:21;;;;;;;34.60;26.95;;;12.40;98.30;;;;;;5049836;28;20071;-65
2020/12/22 21:43:46;;;;;;;35.00;26.48;;;12.40;98.20;;;;;;5040083;28;20654;-65
2020/12/22 21:46:15;;;;;;;34.30;26.75;;;12.40;98.20;;;;;;5042944;28;20028;-65
2020/12/22 21:48:41;;;;;;;35.53;27.42;;;12.40;98.20;;;;;;5038987;28;20025;-65
2020/12/22 21:51:07;;;;;;;31.35;26.05;;;12.20;98.30;;;;;;5045326;28;20501;-65
2020/12/22 21:53:33;;;;;;;34.25;25.90;;;12.30;98.60;;;;;;5045761;28;20022;-65
2020/12/22 21:55:58;;;;;;;41.38;30.38;;;12.30;98.20;;;;;;5045482;28;20052;-65
2020/12/22 21:58:24;;;;;;;36.65;28.13;;;12.30;98.40;;;;;;5037086;28;20133;-64
2020/12/22 22:00:50;;;;;;;36.65;30.02;;;12.30;98.30;;;;;;5041380;28;20116;-65
2020/12/22 22:03:16;;;;;;;41.47;30.83;;;12.30;98.20;;;;;;5042908;28;20170;-65
2020/12/22 22:05:42;;;;;;;34.10;27.27;;;12.30;98.20;;;;;;5037092;28;20103;-65